Time;durP1;ratioP1;P1;durP2;ratioP2;P2;SDS_P1;SDS_P2;PMS_P1;PMS_P2;Temp;Humidity;BMP_temperature;BMP_pressure;BME280_temperature;BME280_humidity;BME280_pressure;Samples;Min_cycle;Max_cycle;Signal;HPM_P1;HPM_P2
2021/03/08 00:00:42;;;;;;;12.03;3.63;;;2.30;99.90;;;;;;4973207;28;20617;-64
2021/03/08 00:03:11;;;;;;;7.03;3.93;;;2.30;99.90;;;;;;4988706;28;20699;-64
2021/03/08 00:08:34;;;;;;;7.70;3.40;;;2.20;99.90;;;;;;4964927;28;21218;-64
2021/03/08 00:11:00;;;;;;;7.07;4.20;;;2.20;99.90;;;;;;4975195;28;20633;-65
2021/03/08 00:13:35;;;;;;;6.10;3.70;;;2.20;99.90;;;;;;4973769;28;20716;-64
2021/03/08 00:16:13;;;;;;;5.83;3.83;;;2.10;99.90;;;;;;4978329;28;20249;-64
2021/03/08 00:18:38;;;;;;;6.00;3.47;;;2.10;99.90;;;;;;4979030;28;20676;-64
2021/03/08 00:21:23;;;;;;;6.43;3.70;;;2.10;99.90;;;;;;4976684;28;20748;-64
2021/03/08 00:23:54;;;;;;;9.03;4.53;;;2.10;99.90;;;;;;4980991;28;20217;-65
2021/03/08 00:26:22;;;;;;;11.60;4.13;;;2.10;99.90;;;;;;4976524;28;20750;-64
2021/03/08 00:28:48;;;;;;;6.60;4.10;;;2.00;99.90;;;;;;4991745;28;20629;-64
2021/03/08 00:31:13;;;;;;;8.80;4.00;;;2.00;99.90;;;;;;4977324;28;20650;-64
2021/03/08 00:33:48;;;;;;;5.80;3.77;;;2.00;99.90;;;;;;4976565;28;20249;-64
2021/03/08 00:36:21;;;;;;;9.80;3.87;;;2.00;99.90;;;;;;4976564;28;20228;-64
2021/03/08 00:38:50;;;;;;;6.10;4.10;;;1.90;99.90;;;;;;4977213;28;21072;-64
2021/03/08 00:41:25;;;;;;;8.93;3.60;;;1.90;99.90;;;;;;4981783;28;20728;-64
2021/03/08 00:43:54;;;;;;;5.30;3.57;;;1.90;99.90;;;;;;4988849;28;20675;-64
2021/03/08 00:46:31;;;;;;;9.77;3.90;;;1.80;99.90;;;;;;4991914;28;20652;-64
2021/03/08 00:48:59;;;;;;;8.20;4.23;;;1.80;99.90;;;;;;4986553;28;20609;-64
2021/03/08 00:51:39;;;;;;;6.40;3.73;;;1.70;99.90;;;;;;4982805;28;21242;-65
2021/03/08 00:54:13;;;;;;;8.43;3.80;;;1.80;99.90;;;;;;4989364;28;20954;-64
2021/03/08 00:56:41;;;;;;;6.03;3.57;;;1.70;99.90;;;;;;4989593;28;20657;-64
2021/03/08 00:59:09;;;;;;;7.63;4.10;;;1.70;99.90;;;;;;4983288;28;20655;-65
2021/03/08 01:01:37;;;;;;;7.90;3.90;;;1.70;99.90;;;;;;4997794;28;20648;-64
2021/03/08 01:04:05;;;;;;;9.53;4.30;;;1.60;99.90;;;;;;4985289;28;20653;-64
2021/03/08 01:06:33;;;;;;;8.43;4.00;;;1.70;99.90;;;;;;4987096;28;20653;-64
2021/03/08 01:09:07;;;;;;;12.00;4.20;;;1.60;99.90;;;;;;4987187;28;21206;-64
2021/03/08 01:11:35;;;;;;;9.50;3.93;;;1.60;99.90;;;;;;4983912;28;21044;-64
2021/03/08 01:14:25;;;;;;;6.37;3.67;;;1.50;99.90;;;;;;4985994;28;20628;-64
2021/03/08 01:17:21;;;;;;;;;;;;;;;;;;;;;
2021/03/08 01:19:58;;;;;;;9.80;4.10;;;1.50;99.90;;;;;;4982316;28;20589;-64
2021/03/08 01:22:29;;;;;;;9.23;4.20;;;1.40;99.90;;;;;;4986440;28;20710;-64
2021/03/08 01:25:31;;;;;;;9.00;4.10;;;1.40;99.90;;;;;;4985129;28;20588;-64
2021/03/08 01:28:02;;;;;;;7.10;4.00;;;1.40;99.90;;;;;;4977233;28;20656;-64
2021/03/08 01:33:39;;;;;;;5.23;4.03;;;1.30;99.90;;;;;;4970147;28;21177;-64
2021/03/08 01:36:08;;;;;;;10.93;4.27;;;1.30;99.90;;;;;;4970054;28;20621;-64
2021/03/08 01:38:36;;;;;;;6.33;3.87;;;1.30;99.90;;;;;;4988465;28;20281;-64
2021/03/08 01:41:16;;;;;;;6.83;4.07;;;1.20;99.90;;;;;;4972687;28;21087;-64
2021/03/08 01:43:49;;;;;;;6.50;3.83;;;1.20;99.90;;;;;;4970020;28;20652;-64
2021/03/08 01:46:17;;;;;;;7.67;4.23;;;1.20;99.90;;;;;;4971900;28;20665;-64
2021/03/08 01:48:58;;;;;;;7.23;3.93;;;1.10;99.90;;;;;;4973472;28;20663;-64
2021/03/08 01:51:39;;;;;;;10.00;4.47;;;1.10;99.90;;;;;;4973334;28;20803;-64
2021/03/08 01:54:22;;;;;;;8.07;6.30;;;1.10;99.90;;;;;;4973913;28;20709;-64
2021/03/08 01:56:54;;;;;;;6.27;3.87;;;1.10;99.90;;;;;;4976076;28;23850;-64
2021/03/08 01:59:27;;;;;;;5.47;3.83;;;1.10;99.90;;;;;;4974316;28;21239;-64
2021/03/08 02:02:00;;;;;;;7.73;3.53;;;1.10;99.90;;;;;;4985411;28;20648;-64
2021/03/08 02:04:33;;;;;;;10.10;3.90;;;1.10;99.90;;;;;;4971850;28;20633;-63
2021/03/08 02:07:08;;;;;;;9.03;4.43;;;1.00;99.90;;;;;;4972353;28;20648;-64
2021/03/08 02:09:49;;;;;;;9.37;5.50;;;1.00;99.90;;;;;;4977989;28;20678;-64
2021/03/08 02:12:27;;;;;;;10.03;4.13;;;0.90;99.90;;;;;;4976925;28;20637;-64
2021/03/08 02:15:49;;;;;;;7.73;3.90;;;0.90;99.90;;;;;;4972965;28;20590;-64
2021/03/08 02:18:41;;;;;;;9.03;4.07;;;0.90;99.90;;;;;;4955824;28;21346;-64
2021/03/08 02:21:29;;;;;;;;;;;;;;;;;;;;;
2021/03/08 02:24:22;;;;;;;5.33;3.77;;;1.00;99.90;;;;;;4971181;28;20618;-64
2021/03/08 02:26:59;;;;;;;5.83;4.00;;;0.80;99.90;;;;;;4974389;28;20630;-64
2021/03/08 02:29:50;;;;;;;6.17;3.90;;;0.80;99.90;;;;;;4976183;28;20628;-64
2021/03/08 02:32:24;;;;;;;6.70;3.60;;;0.80;99.90;;;;;;4973547;28;21290;-64
2021/03/08 02:35:04;;;;;;;8.70;4.03;;;0.70;99.90;;;;;;4970615;28;21893;-64
2021/03/08 02:37:52;;;;;;;12.63;4.30;;;0.70;99.90;;;;;;4974745;28;20641;-64
2021/03/08 02:40:25;;;;;;;6.40;3.80;;;0.70;99.90;;;;;;4985452;28;21144;-64
2021/03/08 02:43:21;;;;;;;9.10;4.13;;;0.60;99.90;;;;;;4972105;28;21107;-65
2021/03/08 02:45:55;;;;;;;8.77;4.63;;;0.60;99.90;;;;;;4982242;28;20886;-64
2021/03/08 02:48:29;;;;;;;8.10;3.90;;;0.60;99.90;;;;;;4977028;28;21176;-64
2021/03/08 02:51:05;;;;;;;8.70;4.00;;;0.50;99.90;;;;;;4983192;28;21091;-64
2021/03/08 02:53:34;;;;;;;5.63;4.20;;;0.50;99.90;;;;;;4979221;28;20581;-63
2021/03/08 02:56:05;;;;;;;9.00;4.17;;;0.50;99.90;;;;;;4989920;28;20652;-64
2021/03/08 02:58:36;;;;;;;8.03;4.27;;;0.50;99.90;;;;;;4982609;28;20683;-63
2021/03/08 03:01:10;;;;;;;8.90;4.00;;;0.50;99.90;;;;;;4975707;28;21291;-64
2021/03/08 03:03:39;;;;;;;8.40;4.60;;;0.50;99.90;;;;;;4977811;28;20613;-64
2021/03/08 03:06:35;;;;;;;5.77;3.93;;;0.40;99.90;;;;;;4974524;28;20625;-64
2021/03/08 03:09:10;;;;;;;7.77;4.07;;;0.40;99.90;;;;;;4978157;28;21436;-63
2021/03/08 03:11:53;;;;;;;9.50;4.40;;;0.50;99.90;;;;;;4976197;28;20978;-64
2021/03/08 03:14:26;;;;;;;6.73;3.97;;;0.40;99.90;;;;;;4978635;28;20616;-63
2021/03/08 03:17:13;;;;;;;9.37;4.37;;;0.30;99.90;;;;;;4976560;28;20664;-64
2021/03/08 03:19:42;;;;;;;9.77;6.00;;;0.30;99.90;;;;;;4976455;28;20651;-64
2021/03/08 03:22:21;;;;;;;10.40;4.17;;;0.30;99.90;;;;;;4976324;28;20642;-65
2021/03/08 03:24:52;;;;;;;5.40;3.93;;;0.30;99.90;;;;;;4992667;28;20719;-63
2021/03/08 03:27:20;;;;;;;7.90;3.77;;;0.30;99.90;;;;;;4979894;28;21040;-63
2021/03/08 03:29:50;;;;;;;6.90;4.27;;;0.30;99.90;;;;;;4977410;28;20615;-63
2021/03/08 03:32:37;;;;;;;;;;;;;;;;;;;;;
2021/03/08 03:35:04;;;;;;;8.00;4.50;;;0.20;99.90;;;;;;4988913;28;20620;-63
2021/03/08 03:37:30;;;;;;;7.53;4.60;;;0.20;99.90;;;;;;4982024;28;21007;-63
2021/03/08 03:39:56;;;;;;;7.40;4.60;;;0.20;99.90;;;;;;4978047;28;20652;-63
2021/03/08 03:42:26;;;;;;;7.40;4.30;;;0.10;99.90;;;;;;4977853;28;21286;-64
2021/03/08 03:44:57;;;;;;;7.80;3.93;;;0.10;99.90;;;;;;4978712;28;20186;-63
2021/03/08 03:47:34;;;;;;;9.07;4.93;;;0.10;99.90;;;;;;4972265;28;21117;-63
2021/03/08 03:50:06;;;;;;;7.27;4.13;;;0.10;99.90;;;;;;4977608;28;22084;-63
2021/03/08 03:52:37;;;;;;;5.47;3.90;;;0.10;99.90;;;;;;4977515;28;20628;-63
2021/03/08 03:55:11;;;;;;;7.63;4.27;;;0.00;99.90;;;;;;4982600;28;20624;-63
2021/03/08 03:57:45;;;;;;;7.97;4.90;;;0.00;99.90;;;;;;4977767;28;20649;-63
2021/03/08 04:00:15;;;;;;;6.83;4.13;;;0.00;99.90;;;;;;4972432;28;20637;-63
2021/03/08 04:02:49;;;;;;;9.40;4.77;;;0.00;99.90;;;;;;4980904;28;20679;-63
2021/03/08 04:05:26;;;;;;;6.30;4.20;;;-0.10;99.90;;;;;;4979386;28;20704;-63
2021/03/08 04:07:57;;;;;;;6.43;4.10;;;-0.10;99.90;;;;;;4989071;28;20645;-63
2021/03/08 04:10:36;;;;;;;6.43;4.20;;;-0.10;99.90;;;;;;4976007;28;21229;-63
2021/03/08 04:13:11;;;;;;;6.10;3.63;;;-0.10;99.90;;;;;;4987700;28;20620;-63
2021/03/08 04:15:45;;;;;;;9.10;4.60;;;-0.10;99.90;;;;;;4974406;28;20653;-64
2021/03/08 04:18:21;;;;;;;8.03;4.67;;;-0.20;99.90;;;;;;4977705;28;20697;-63
2021/03/08 04:20:48;;;;;;;6.00;4.23;;;-0.20;99.90;;;;;;4990751;28;20756;-63
2021/03/08 04:23:32;;;;;;;;;;;;;;;;;;;;;
2021/03/08 04:26:02;;;;;;;6.73;4.07;;;-0.20;99.90;;;;;;4977127;28;20613;-64
2021/03/08 04:28:29;;;;;;;5.30;3.90;;;-0.20;99.90;;;;;;4977565;28;20625;-64
2021/03/08 04:30:55;;;;;;;5.27;4.10;;;-0.20;99.90;;;;;;4974572;28;20724;-63
2021/03/08 04:33:23;;;;;;;4.07;3.67;;;-0.20;99.90;;;;;;4978577;28;20715;-64
2021/03/08 04:36:07;;;;;;;6.77;4.30;;;-0.30;99.90;;;;;;4980534;28;20632;-64
2021/03/08 04:38:39;;;;;;;6.60;5.07;;;-0.30;99.90;;;;;;4978625;28;20624;-64
2021/03/08 04:41:12;;;;;;;8.13;3.70;;;-0.30;99.90;;;;;;4978818;28;20650;-64
2021/03/08 04:43:49;;;;;;;5.70;4.40;;;-0.30;99.90;;;;;;4980369;28;20664;-64
2021/03/08 04:46:23;;;;;;;5.93;3.90;;;-0.40;99.90;;;;;;4979644;28;20753;-64
2021/03/08 04:48:49;;;;;;;6.30;4.30;;;-0.40;99.90;;;;;;4996256;23;20707;-70
2021/03/08 04:51:20;;;;;;;7.30;4.93;;;-0.30;99.90;;;;;;4987091;28;20644;-67
2021/03/08 04:53:51;;;;;;;6.00;4.70;;;-0.40;99.90;;;;;;4977806;28;20625;-68
2021/03/08 04:56:23;;;;;;;7.77;4.63;;;-0.40;99.90;;;;;;4982300;28;20913;-68
2021/03/08 04:58:54;;;;;;;6.70;4.93;;;-0.40;99.90;;;;;;4975379;28;21103;-67
2021/03/08 05:01:33;;;;;;;;;;;;;;;;;;;;;
2021/03/08 05:04:09;;;;;;;8.20;3.90;;;-0.40;99.90;;;;;;4991297;28;20755;-68
2021/03/08 05:07:05;;;;;;;7.00;4.23;;;-0.40;99.90;;;;;;4994303;28;21180;-68
2021/03/08 05:09:38;;;;;;;6.17;3.80;;;-0.50;99.90;;;;;;4996885;28;20663;-68
2021/03/08 05:12:29;;;;;;;6.27;4.33;;;-0.50;99.90;;;;;;4970821;28;20983;-68
2021/03/08 05:15:02;;;;;;;9.83;4.50;;;-0.60;99.90;;;;;;4957040;28;20633;-68
2021/03/08 05:17:39;;;;;;;5.83;4.27;;;-0.60;99.90;;;;;;4942955;28;20709;-68
2021/03/08 05:20:26;;;;;;;7.07;4.33;;;-0.50;99.90;;;;;;4972895;28;21093;-68
2021/03/08 05:23:04;;;;;;;7.70;5.10;;;-0.50;99.90;;;;;;4974983;28;20621;-68
2021/03/08 05:25:31;;;;;;;6.63;4.67;;;-0.60;99.90;;;;;;4977314;28;20679;-68
2021/03/08 05:28:24;;;;;;;5.23;4.40;;;-0.60;99.90;;;;;;4973209;28;20790;-67
2021/03/08 05:31:02;;;;;;;7.23;5.93;;;-0.60;99.90;;;;;;4972498;28;20641;-68
2021/03/08 05:33:38;;;;;;;8.13;4.93;;;-0.60;99.90;;;;;;4974413;28;20617;-68
2021/03/08 05:36:09;;;;;;;6.97;4.67;;;-0.70;99.90;;;;;;4973846;28;20788;-68
2021/03/08 05:38:49;;;;;;;9.30;5.07;;;-0.70;99.90;;;;;;4983532;28;20684;-68
2021/03/08 05:41:41;;;;;;;7.53;5.00;;;-0.70;99.90;;;;;;4974565;28;20920;-67
2021/03/08 05:44:20;;;;;;;6.90;4.60;;;-0.70;99.90;;;;;;4970882;28;20721;-68
2021/03/08 05:47:01;;;;;;;5.70;4.27;;;-0.80;99.90;;;;;;4972544;28;21274;-68
2021/03/08 05:50:03;;;;;;;7.07;4.40;;;-0.80;99.90;;;;;;4972111;28;20582;-68
2021/03/08 05:52:56;;;;;;;7.63;4.60;;;-0.80;99.90;;;;;;4992903;28;20686;-68
2021/03/08 05:56:07;;;;;;;7.80;4.20;;;-0.80;99.90;;;;;;4991719;28;20588;-67
2021/03/08 05:59:15;;;;;;;5.60;3.90;;;-0.90;99.90;;;;;;4994728;28;20731;-68
2021/03/08 06:02:32;;;;;;;7.03;3.73;;;-0.90;99.90;;;;;;4986928;28;20654;-69
2021/03/08 06:05:20;;;;;;;6.70;3.37;;;-0.90;99.90;;;;;;4975665;28;21316;-68
2021/03/08 06:08:10;;;;;;;4.43;3.50;;;-0.90;99.90;;;;;;4993813;28;20645;-68
2021/03/08 06:10:45;;;;;;;7.07;3.87;;;-0.90;99.90;;;;;;4992536;28;20683;-68
2021/03/08 06:13:15;;;;;;;10.30;4.97;;;-0.90;99.90;;;;;;4984227;28;20631;-68
2021/03/08 06:15:43;;;;;;;5.10;3.20;;;-0.90;99.90;;;;;;5004394;28;20631;-68
2021/03/08 06:18:17;;;;;;;6.30;3.00;;;-0.90;99.90;;;;;;5003349;28;20978;-68
2021/03/08 06:20:56;;;;;;;4.53;3.33;;;-0.90;99.90;;;;;;5005908;28;20718;-68
2021/03/08 06:23:28;;;;;;;4.87;4.23;;;-0.90;99.90;;;;;;5014471;28;20635;-68
2021/03/08 06:25:58;;;;;;;6.13;3.77;;;-0.90;99.90;;;;;;5003252;28;20583;-68
2021/03/08 06:28:24;;;;;;;5.00;3.80;;;-0.90;99.90;;;;;;4997626;28;20651;-70
2021/03/08 06:30:53;;;;;;;3.70;3.23;;;-0.90;99.90;;;;;;4994461;28;21069;-69
2021/03/08 06:33:36;;;;;;;4.43;3.93;;;-0.90;99.90;;;;;;4992484;28;20996;-69
2021/03/08 06:36:08;;;;;;;7.50;4.00;;;-0.90;99.90;;;;;;4994817;28;20616;-68
2021/03/08 06:38:39;;;;;;;4.00;3.57;;;-0.80;99.90;;;;;;4994394;28;20651;-68
2021/03/08 06:41:15;;;;;;;6.20;3.80;;;-0.80;99.90;;;;;;4996335;28;21207;-68
2021/03/08 06:43:44;;;;;;;4.40;3.70;;;-0.80;99.90;;;;;;4993510;28;20655;-68
2021/03/08 06:46:18;;;;;;;5.37;3.97;;;-0.70;99.90;;;;;;4997546;28;20627;-68
2021/03/08 06:48:46;;;;;;;8.17;4.70;;;-0.80;99.90;;;;;;4963121;28;20667;-68
2021/03/08 06:51:32;;;;;;;7.20;4.50;;;-0.70;99.90;;;;;;4997531;28;20640;-68
2021/03/08 06:54:18;;;;;;;4.93;4.00;;;-0.60;99.90;;;;;;4981465;28;20728;-68
2021/03/08 06:56:50;;;;;;;7.03;3.80;;;-0.60;99.90;;;;;;4995779;28;21138;-68
2021/03/08 07:02:07;;;;;;;5.17;3.67;;;-0.50;99.90;;;;;;4995278;28;20667;-68
2021/03/08 07:04:33;;;;;;;6.90;4.23;;;-0.50;99.90;;;;;;4975552;28;20666;-68
2021/03/08 07:07:04;;;;;;;4.97;3.93;;;-0.50;99.90;;;;;;4975712;28;20669;-68
2021/03/08 07:09:32;;;;;;;7.37;4.40;;;-0.50;99.90;;;;;;5008021;28;20208;-68
2021/03/08 07:12:10;;;;;;;4.93;4.23;;;-0.40;99.90;;;;;;5004673;28;20644;-68
2021/03/08 07:14:37;;;;;;;5.83;4.43;;;-0.40;99.90;;;;;;5002345;28;20615;-69
2021/03/08 07:17:36;;;;;;;11.17;4.30;;;-0.30;99.90;;;;;;5010873;28;20638;-69
2021/03/08 07:20:13;;;;;;;8.43;4.30;;;-0.30;99.90;;;;;;5003789;28;21275;-68
2021/03/08 07:22:49;;;;;;;6.53;5.23;;;-0.30;99.90;;;;;;5004995;28;21255;-68
2021/03/08 07:25:27;;;;;;;9.93;4.40;;;-0.20;99.90;;;;;;4984198;28;20670;-68
2021/03/08 07:28:03;;;;;;;6.47;4.17;;;-0.20;99.90;;;;;;4984819;28;21232;-68
2021/03/08 07:30:37;;;;;;;7.00;4.33;;;-0.10;99.90;;;;;;4982258;28;20643;-69
2021/03/08 07:33:06;;;;;;;5.97;3.97;;;-0.10;99.90;;;;;;5003138;28;20853;-69
2021/03/08 07:35:53;;;;;;;6.80;4.97;;;-0.10;99.90;;;;;;5001820;28;20613;-69
2021/03/08 07:38:34;;;;;;;4.27;3.87;;;0.00;99.90;;;;;;5005030;28;20662;-69
2021/03/08 07:41:16;;;;;;;5.20;4.23;;;0.10;99.90;;;;;;5006982;28;20624;-70
2021/03/08 07:43:47;;;;;;;5.90;5.07;;;0.10;99.90;;;;;;5001144;28;20725;-69
2021/03/08 07:46:32;;;;;;;4.63;3.70;;;0.20;99.90;;;;;;5002508;28;20658;-69
2021/03/08 07:49:02;;;;;;;3.70;3.40;;;0.30;99.90;;;;;;5007924;28;20702;-69
2021/03/08 07:51:27;;;;;;;6.80;4.50;;;0.30;99.90;;;;;;4986698;28;20975;-69
2021/03/08 07:54:09;;;;;;;6.00;4.40;;;0.40;99.90;;;;;;4990917;28;20623;-68
2021/03/08 07:56:37;;;;;;;8.00;4.57;;;0.40;99.90;;;;;;4998727;28;20197;-69
2021/03/08 07:59:03;;;;;;;5.47;4.53;;;0.60;99.90;;;;;;4983329;28;20961;-69
2021/03/08 08:01:28;;;;;;;6.60;4.57;;;0.60;99.90;;;;;;5006285;28;20699;-69
2021/03/08 08:03:54;;;;;;;9.27;5.03;;;0.80;99.90;;;;;;4995837;28;20209;-69
2021/03/08 08:06:23;;;;;;;7.07;4.93;;;0.80;99.90;;;;;;4986329;28;20259;-69
2021/03/08 08:08:54;;;;;;;9.23;5.20;;;0.90;99.90;;;;;;4997933;28;20248;-70
2021/03/08 08:11:26;;;;;;;5.27;3.80;;;1.00;99.90;;;;;;4997318;28;20658;-69
2021/03/08 08:13:57;;;;;;;5.43;4.20;;;1.10;99.90;;;;;;4997401;28;21034;-69
2021/03/08 08:16:28;;;;;;;6.40;4.50;;;1.10;99.90;;;;;;4999194;28;20633;-69
2021/03/08 08:19:03;;;;;;;5.47;3.83;;;1.10;99.90;;;;;;5002443;28;20644;-69
2021/03/08 08:21:38;;;;;;;7.17;3.50;;;1.20;99.90;;;;;;5004039;28;20639;-65
2021/03/08 08:24:09;;;;;;;5.03;3.97;;;1.30;99.90;;;;;;4982438;28;20648;-69
2021/03/08 08:26:35;;;;;;;5.30;3.27;;;1.40;99.90;;;;;;5004159;28;20604;-69
2021/03/08 08:29:04;;;;;;;5.97;4.00;;;1.50;99.90;;;;;;5002012;28;20667;-69
2021/03/08 08:32:02;;;;;;;6.23;3.93;;;1.60;99.90;;;;;;5006042;28;22989;-69
2021/03/08 08:34:38;;;;;;;7.43;3.50;;;1.70;99.90;;;;;;5002516;28;20694;-69
2021/03/08 08:37:16;;;;;;;5.30;3.47;;;1.80;99.90;;;;;;4982357;28;20608;-69
2021/03/08 08:39:44;;;;;;;4.60;2.93;;;1.90;99.90;;;;;;5001320;28;20657;-69
2021/03/08 08:42:13;;;;;;;5.97;2.83;;;2.00;99.90;;;;;;4987854;28;20695;-69
2021/03/08 08:44:40;;;;;;;4.10;2.87;;;2.00;99.90;;;;;;5004981;28;20656;-69
2021/03/08 08:47:14;;;;;;;4.40;2.77;;;2.10;99.90;;;;;;4997070;28;20616;-69
2021/03/08 08:49:47;;;;;;;3.63;2.53;;;2.20;99.90;;;;;;4998034;28;20687;-69
2021/03/08 08:52:13;;;;;;;4.80;2.63;;;2.30;99.90;;;;;;4998189;28;21163;-70
2021/03/08 08:54:39;;;;;;;4.07;2.37;;;2.40;99.90;;;;;;4985781;28;20646;-70
2021/03/08 08:57:12;;;;;;;2.60;2.10;;;2.50;99.90;;;;;;5002579;28;20617;-70
2021/03/08 08:59:49;;;;;;;4.93;2.70;;;2.60;99.90;;;;;;5004450;28;20543;-70
2021/03/08 09:04:48;;;;;;;6.07;2.10;;;2.70;99.90;;;;;;5004338;28;20640;-69
2021/03/08 09:07:24;;;;;;;4.07;2.20;;;2.80;99.90;;;;;;5002801;28;20632;-69
2021/03/08 09:09:49;;;;;;;3.30;2.30;;;2.90;99.90;;;;;;4997299;28;20635;-69
2021/03/08 09:12:32;;;;;;;5.63;2.87;;;3.00;99.90;;;;;;5000313;28;20946;-69
2021/03/08 09:15:00;;;;;;;4.10;1.80;;;3.10;99.90;;;;;;5013609;28;20200;-69
2021/03/08 09:17:46;;;;;;;3.27;1.77;;;3.20;99.90;;;;;;5001774;28;20664;-70
2021/03/08 09:20:14;;;;;;;2.80;2.23;;;3.30;99.90;;;;;;4995426;28;20648;-69
2021/03/08 09:22:47;;;;;;;4.27;1.90;;;3.40;99.90;;;;;;4995832;28;20640;-69
2021/03/08 09:25:20;;;;;;;3.43;1.50;;;3.50;99.90;;;;;;4998222;28;20886;-69
2021/03/08 09:27:50;;;;;;;2.63;1.57;;;3.50;99.90;;;;;;5002189;28;20659;-69
2021/03/08 09:30:21;;;;;;;2.90;1.50;;;3.60;99.90;;;;;;4996333;28;21239;-69
2021/03/08 09:32:56;;;;;;;2.70;1.90;;;3.70;99.90;;;;;;4999627;28;20631;-69
2021/03/08 09:35:31;;;;;;;3.10;1.93;;;3.80;99.90;;;;;;4996229;28;20765;-69
2021/03/08 09:38:06;;;;;;;1.83;1.70;;;3.80;99.90;;;;;;4996149;28;20676;-69
2021/03/08 09:40:35;;;;;;;3.37;1.60;;;3.90;99.90;;;;;;4977705;28;21084;-69
2021/03/08 09:43:03;;;;;;;4.63;1.80;;;4.00;99.90;;;;;;4995428;28;20640;-69
2021/03/08 09:45:35;;;;;;;3.77;1.97;;;4.00;99.90;;;;;;5003549;28;20683;-69
2021/03/08 09:48:02;;;;;;;2.97;1.50;;;4.10;99.90;;;;;;4981111;28;20864;-69
2021/03/08 09:50:37;;;;;;;2.30;1.70;;;4.20;99.90;;;;;;5005095;28;21179;-69
2021/03/08 09:53:07;;;;;;;4.43;1.60;;;4.20;99.90;;;;;;5002341;28;20612;-69
2021/03/08 09:55:35;;;;;;;2.37;1.93;;;4.30;99.90;;;;;;5000347;28;20612;-69
2021/03/08 09:58:12;;;;;;;2.00;1.80;;;4.40;99.90;;;;;;4978058;28;20652;-69
2021/03/08 10:00:38;;;;;;;2.50;1.80;;;4.40;99.90;;;;;;5010321;28;20846;-69
2021/03/08 10:03:05;;;;;;;2.80;1.80;;;4.40;99.90;;;;;;5000406;28;20829;-69
2021/03/08 10:05:49;;;;;;;2.03;1.30;;;4.50;99.90;;;;;;4985357;28;20507;-69
2021/03/08 10:08:17;;;;;;;3.67;2.17;;;4.70;99.90;;;;;;5007536;28;20636;-70
2021/03/08 10:10:50;;;;;;;1.63;1.30;;;4.70;99.90;;;;;;5006139;28;20731;-69
2021/03/08 10:13:22;;;;;;;3.73;1.87;;;4.80;99.90;;;;;;5002623;28;20622;-69
2021/03/08 10:15:52;;;;;;;2.63;1.80;;;4.90;99.90;;;;;;5009773;28;21082;-70
2021/03/08 10:18:24;;;;;;;3.47;1.60;;;4.90;99.90;;;;;;5007129;28;20650;-69
2021/03/08 10:20:52;;;;;;;3.40;1.30;;;5.00;99.90;;;;;;4986414;28;20759;-69
2021/03/08 10:23:29;;;;;;;1.60;1.50;;;5.10;99.90;;;;;;5008436;28;20778;-69
2021/03/08 10:26:12;;;;;;;3.97;1.40;;;5.20;99.90;;;;;;5001130;28;20625;-69
2021/03/08 10:28:39;;;;;;;1.43;1.23;;;5.30;99.90;;;;;;5002661;28;20632;-69
2021/03/08 10:31:17;;;;;;;2.53;1.10;;;5.40;99.90;;;;;;5000002;28;21176;-69
2021/03/08 10:33:44;;;;;;;2.03;1.40;;;5.50;99.90;;;;;;5009623;28;20576;-69
2021/03/08 10:36:15;;;;;;;2.03;1.20;;;5.50;99.90;;;;;;5016355;28;20612;-69
2021/03/08 10:38:41;;;;;;;2.93;1.47;;;5.60;99.90;;;;;;5005659;28;20636;-69
2021/03/08 10:41:07;;;;;;;2.07;0.97;;;5.80;99.90;;;;;;5006526;28;20667;-69
2021/03/08 10:43:36;;;;;;;1.37;1.17;;;5.90;99.90;;;;;;4988389;28;20888;-69
2021/03/08 10:46:05;;;;;;;1.20;0.90;;;5.80;99.90;;;;;;5005808;28;20664;-69
2021/03/08 10:48:30;;;;;;;1.30;1.03;;;6.00;99.90;;;;;;5008649;23;20687;-65
2021/03/08 10:51:01;;;;;;;1.30;0.90;;;6.10;99.90;;;;;;5007694;28;20724;-64
2021/03/08 10:53:27;;;;;;;1.33;1.00;;;6.30;99.90;;;;;;4995668;28;20181;-64
2021/03/08 10:55:55;;;;;;;1.10;1.00;;;6.40;99.90;;;;;;5009698;28;20686;-64
2021/03/08 10:58:36;;;;;;;1.30;1.20;;;6.50;99.90;;;;;;4998690;28;20661;-65
2021/03/08 11:01:11;;;;;;;1.97;1.40;;;6.60;99.90;;;;;;4989852;28;20668;-65
2021/03/08 11:03:40;;;;;;;1.90;1.23;;;6.70;99.90;;;;;;4974520;28;20661;-65
2021/03/08 11:06:17;;;;;;;1.57;1.47;;;6.80;99.90;;;;;;4989091;28;21053;-64
2021/03/08 11:08:58;;;;;;;2.30;1.60;;;6.90;99.90;;;;;;4988547;28;20629;-64
2021/03/08 11:11:32;;;;;;;1.57;1.13;;;7.10;99.90;;;;;;4983240;28;21242;-65
2021/03/08 11:14:09;;;;;;;1.17;1.07;;;7.20;99.90;;;;;;4988293;28;20612;-65
2021/03/08 11:16:47;;;;;;;1.90;1.37;;;7.30;99.90;;;;;;4987523;28;21031;-65
2021/03/08 11:19:26;;;;;;;1.87;1.53;;;7.40;99.90;;;;;;4982536;28;20645;-64
2021/03/08 11:22:07;;;;;;;3.10;2.70;;;7.50;99.90;;;;;;4969815;28;20634;-65
2021/03/08 11:24:49;;;;;;;1.93;1.30;;;7.70;99.90;;;;;;4984424;28;20707;-65
2021/03/08 11:27:24;;;;;;;1.03;0.93;;;7.70;99.90;;;;;;4978273;28;20581;-65
2021/03/08 11:30:03;;;;;;;2.33;1.40;;;7.90;99.90;;;;;;4984480;28;20626;-65
2021/03/08 11:32:38;;;;;;;3.40;1.40;;;8.00;98.70;;;;;;4981163;28;20612;-65
2021/03/08 11:35:04;;;;;;;3.50;1.70;;;8.10;96.90;;;;;;4987381;28;20603;-65
2021/03/08 11:37:31;;;;;;;3.00;1.33;;;8.10;96.80;;;;;;4985159;28;20641;-65
2021/03/08 11:39:58;;;;;;;2.70;2.17;;;8.20;96.40;;;;;;4979287;28;21222;-65
2021/03/08 11:42:26;;;;;;;1.83;1.70;;;8.40;97.30;;;;;;4984692;28;20786;-65
2021/03/08 11:44:55;;;;;;;2.57;1.60;;;8.50;97.80;;;;;;4986876;28;20668;-64
2021/03/08 11:47:30;;;;;;;2.53;1.90;;;8.70;96.40;;;;;;4980058;28;20617;-63
2021/03/08 11:49:57;;;;;;;1.70;1.40;;;8.80;96.10;;;;;;4979022;28;20627;-63
2021/03/08 11:52:26;;;;;;;1.40;1.10;;;8.90;96.10;;;;;;4966533;28;20617;-64
2021/03/08 11:54:54;;;;;;;1.73;1.00;;;9.10;95.30;;;;;;4982980;28;20958;-65
2021/03/08 11:57:23;;;;;;;1.70;1.33;;;9.30;94.50;;;;;;4976802;28;20641;-64
2021/03/08 11:59:48;;;;;;;1.20;1.10;;;9.60;94.90;;;;;;4981602;28;20630;-64
2021/03/08 12:02:16;;;;;;;1.10;1.00;;;9.80;92.40;;;;;;4990730;28;20605;-64
2021/03/08 12:04:44;;;;;;;1.17;1.10;;;10.00;90.60;;;;;;4985014;28;20214;-65
2021/03/08 12:07:15;;;;;;;1.57;1.23;;;10.20;90.60;;;;;;4977931;28;21183;-65
2021/03/08 12:09:46;;;;;;;1.37;0.90;;;10.40;90.20;;;;;;4979448;28;21212;-64
2021/03/08 12:12:12;;;;;;;2.13;1.10;;;10.60;85.00;;;;;;4969977;28;20612;-64
2021/03/08 12:14:37;;;;;;;1.40;1.10;;;10.80;82.70;;;;;;4961212;28;20617;-65
2021/03/08 12:17:03;;;;;;;0.87;0.83;;;11.00;85.90;;;;;;4983612;28;20244;-65
2021/03/08 12:19:33;;;;;;;1.33;1.20;;;11.30;83.60;;;;;;4983797;28;20597;-65
2021/03/08 12:22:04;;;;;;;1.10;0.97;;;11.70;78.60;;;;;;4969882;28;21214;-66
2021/03/08 12:24:30;;;;;;;1.80;1.20;;;12.00;74.50;;;;;;4994881;28;20636;-66
2021/03/08 12:26:55;;;;;;;2.17;1.87;;;12.30;68.70;;;;;;4990874;28;20605;-66
2021/03/08 12:29:23;;;;;;;1.73;1.40;;;12.90;64.60;;;;;;4967195;28;20257;-65
2021/03/08 12:31:51;;;;;;;1.60;1.30;;;13.60;65.90;;;;;;4965408;28;20211;-64
2021/03/08 12:34:16;;;;;;;3.53;1.60;;;14.90;61.50;;;;;;4978900;28;20617;-64
2021/03/08 12:36:44;;;;;;;1.70;1.50;;;16.40;61.00;;;;;;4979602;28;21182;-64
2021/03/08 12:39:12;;;;;;;2.00;1.70;;;18.10;57.60;;;;;;4978872;28;20202;-65
2021/03/08 12:41:40;;;;;;;1.73;1.63;;;19.70;49.00;;;;;;4976366;28;20687;-65
2021/03/08 12:44:07;;;;;;;1.80;1.70;;;21.20;48.80;;;;;;4962837;28;20633;-65
2021/03/08 12:46:35;;;;;;;1.47;1.37;;;22.80;44.20;;;;;;4983006;28;20854;-65
2021/03/08 12:49:05;;;;;;;3.63;1.80;;;24.20;42.10;;;;;;4978676;28;20665;-65
2021/03/08 12:51:31;;;;;;;1.97;1.80;;;25.60;36.20;;;;;;4976114;28;20644;-66
2021/03/08 12:54:01;;;;;;;1.70;1.60;;;26.80;35.50;;;;;;4989105;28;20967;-65
2021/03/08 12:56:29;;;;;;;2.13;1.60;;;27.80;34.00;;;;;;4987402;28;20262;-64
2021/03/08 12:58:55;;;;;;;1.50;1.40;;;28.70;34.20;;;;;;4962763;28;21277;-65
2021/03/08 13:01:23;;;;;;;3.10;1.60;;;29.30;31.20;;;;;;4981995;28;20703;-65
2021/03/08 13:03:51;;;;;;;2.50;1.10;;;30.00;31.10;;;;;;4986163;28;20584;-67
2021/03/08 13:06:19;;;;;;;1.50;1.40;;;30.70;29.10;;;;;;4978991;28;20613;-68
2021/03/08 13:08:45;;;;;;;2.10;1.27;;;31.00;27.80;;;;;;4965471;28;20815;-68
2021/03/08 13:11:15;;;;;;;1.40;1.33;;;31.40;28.50;;;;;;4960297;28;20640;-67
2021/03/08 13:13:41;;;;;;;1.47;1.20;;;31.70;26.80;;;;;;4983539;28;20296;-68
2021/03/08 13:16:06;;;;;;;2.20;1.20;;;31.50;26.10;;;;;;4978321;28;20655;-68
2021/03/08 13:18:33;;;;;;;1.23;1.10;;;31.20;26.00;;;;;;4981475;28;20221;-68
2021/03/08 13:21:01;;;;;;;1.70;0.90;;;30.50;25.90;;;;;;4976641;28;20219;-68
2021/03/08 13:23:26;;;;;;;1.37;1.00;;;30.10;27.00;;;;;;4995615;28;20619;-68
2021/03/08 13:25:54;;;;;;;1.20;1.10;;;29.80;27.70;;;;;;4972636;28;20605;-68
2021/03/08 13:28:24;;;;;;;1.07;0.97;;;29.40;28.20;;;;;;4986407;28;20225;-67
2021/03/08 13:30:50;;;;;;;2.03;1.00;;;29.10;27.20;;;;;;4965004;28;20804;-68
2021/03/08 13:33:21;;;;;;;2.60;0.93;;;28.70;27.60;;;;;;4988799;28;21251;-68
2021/03/08 13:35:47;;;;;;;1.87;1.10;;;28.10;26.90;;;;;;4987518;28;20558;-67
2021/03/08 13:38:20;;;;;;;2.07;1.30;;;28.00;28.90;;;;;;4985101;28;20650;-68
2021/03/08 13:40:51;;;;;;;1.20;1.10;;;27.70;27.60;;;;;;4985428;28;20217;-67
2021/03/08 13:43:18;;;;;;;2.47;1.33;;;27.30;27.80;;;;;;4987417;28;20684;-67